createdAt,value
2022-10-26T00:01:34.994Z,7.10
2022-10-26T00:04:02.897Z,7.10
2022-10-26T00:06:32.974Z,7.00
2022-10-26T00:09:01.866Z,6.90
2022-10-26T00:11:34.659Z,6.84
2022-10-26T00:14:03.359Z,6.80
2022-10-26T00:16:31.924Z,6.70
2022-10-26T00:19:02.220Z,6.70
2022-10-26T00:21:29.938Z,6.70
2022-10-26T00:24:00.407Z,6.70
2022-10-26T00:26:28.436Z,6.70
2022-10-26T00:28:58.042Z,6.70
2022-10-26T00:31:26.874Z,6.80
2022-10-26T00:33:59.050Z,6.80
2022-10-26T00:36:27.363Z,6.90
2022-10-26T00:38:59.224Z,6.98
2022-10-26T00:41:31.877Z,6.96
2022-10-26T00:44:01.506Z,6.90
2022-10-26T00:46:38.697Z,6.80
2022-10-26T00:49:20.655Z,6.74
2022-10-26T00:51:53.424Z,6.70
2022-10-26T00:54:21.815Z,6.70
2022-10-26T00:56:54.505Z,6.70
2022-10-26T00:59:26.016Z,6.60
2022-10-26T01:01:56.974Z,6.60
2022-10-26T01:04:25.425Z,6.60
2022-10-26T01:06:54.604Z,6.70
2022-10-26T01:09:26.210Z,6.70
2022-10-26T01:11:55.276Z,6.72
2022-10-26T01:14:28.337Z,6.80
2022-10-26T01:17:46.697Z,6.80
2022-10-26T01:20:49.482Z,6.80
2022-10-26T01:24:18.580Z,6.80
2022-10-26T01:27:06.668Z,6.80
2022-10-26T01:30:22.482Z,6.80
2022-10-26T01:33:21.710Z,6.80
2022-10-26T01:36:12.559Z,6.72
2022-10-26T01:39:09.869Z,6.74
2022-10-26T01:41:51.522Z,6.70
2022-10-26T01:44:43.513Z,6.74
2022-10-26T01:47:15.681Z,6.78
2022-10-26T01:49:55.526Z,6.80
2022-10-26T01:52:24.230Z,6.80
2022-10-26T01:55:02.871Z,6.80
2022-10-26T01:57:38.439Z,6.80
2022-10-26T02:00:11.458Z,6.80
2022-10-26T02:03:08.038Z,6.88
2022-10-26T02:06:16.575Z,6.80
2022-10-26T02:09:22.404Z,6.80
2022-10-26T02:11:55.448Z,6.76
2022-10-26T02:14:50.508Z,6.76
2022-10-26T02:18:03.390Z,6.70
2022-10-26T02:20:43.297Z,6.68
2022-10-26T02:23:16.833Z,6.60
2022-10-26T02:25:54.287Z,6.60
2022-10-26T02:28:35.616Z,6.60
2022-10-26T02:31:09.730Z,6.60
2022-10-26T02:33:41.520Z,6.60
2022-10-26T02:36:16.209Z,6.50
2022-10-26T02:38:49.887Z,6.50
2022-10-26T02:41:21.939Z,6.50
2022-10-26T02:44:18.598Z,6.40
2022-10-26T02:46:48.448Z,6.40
2022-10-26T02:49:21.568Z,6.40
2022-10-26T02:52:03.770Z,6.40
2022-10-26T02:54:50.244Z,6.34
2022-10-26T02:57:39.768Z,6.40
2022-10-26T03:00:17.479Z,6.40
2022-10-26T03:02:53.246Z,6.40
2022-10-26T03:05:32.760Z,6.50
2022-10-26T03:08:03.865Z,6.50
2022-10-26T03:10:34.273Z,6.50
2022-10-26T03:13:05.106Z,6.50
2022-10-26T03:15:38.464Z,6.58
2022-10-26T03:18:07.069Z,6.50
2022-10-26T03:20:36.684Z,6.50
2022-10-26T03:23:08.774Z,6.48
2022-10-26T03:25:36.783Z,6.40
2022-10-26T03:28:05.861Z,6.40
2022-10-26T03:30:35.017Z,6.48
2022-10-26T03:33:02.756Z,6.50
2022-10-26T03:35:30.985Z,6.50
2022-10-26T03:37:58.799Z,6.40
2022-10-26T03:40:27.369Z,6.40
2022-10-26T03:42:55.645Z,6.40
2022-10-26T03:45:23.537Z,6.40
2022-10-26T03:47:53.856Z,6.50
2022-10-26T03:50:29.744Z,6.50
2022-10-26T03:53:00.252Z,6.48
2022-10-26T03:55:30.378Z,6.42
2022-10-26T03:57:58.951Z,6.40
2022-10-26T04:00:29.894Z,6.38
2022-10-26T04:03:00.725Z,6.34
2022-10-26T04:05:30.472Z,6.40
2022-10-26T04:08:05.197Z,6.40
2022-10-26T04:10:33.264Z,6.40
2022-10-26T04:13:01.893Z,6.40
2022-10-26T04:15:32.165Z,6.40
2022-10-26T04:18:02.958Z,6.40
2022-10-26T04:20:36.808Z,6.40
2022-10-26T04:23:11.187Z,6.40
2022-10-26T04:25:40.510Z,6.40
2022-10-26T04:28:10.028Z,6.30
2022-10-26T04:30:39.674Z,6.30
2022-10-26T04:33:08.333Z,6.30
2022-10-26T04:35:36.616Z,6.30
2022-10-26T04:38:08.671Z,6.30
2022-10-26T04:40:38.048Z,6.30
2022-10-26T04:43:05.785Z,6.30
2022-10-26T04:45:33.742Z,6.30
2022-10-26T04:48:08.291Z,6.30
2022-10-26T04:50:38.014Z,6.30
2022-10-26T04:53:10.876Z,6.30
2022-10-26T04:55:38.762Z,6.30
2022-10-26T04:58:08.574Z,6.30
2022-10-26T05:00:36.547Z,6.30
2022-10-26T05:03:08.317Z,6.30
2022-10-26T05:05:39.777Z,6.20
2022-10-26T05:08:11.453Z,6.18
2022-10-26T05:10:42.973Z,6.20
2022-10-26T05:13:10.958Z,6.12
2022-10-26T05:15:41.874Z,6.10
2022-10-26T05:18:10.338Z,6.06
2022-10-26T05:20:38.377Z,6.10
2022-10-26T05:23:18.403Z,6.10
2022-10-26T05:25:52.241Z,6.10
2022-10-26T05:28:22.101Z,6.10
2022-10-26T05:30:51.076Z,6.10
2022-10-26T05:33:19.956Z,6.10
2022-10-26T05:35:49.140Z,6.20
2022-10-26T05:38:17.939Z,6.30
2022-10-26T05:40:54.246Z,6.30
2022-10-26T05:43:27.199Z,6.34
2022-10-26T05:45:57.914Z,6.40
2022-10-26T05:48:25.969Z,6.30
2022-10-26T05:50:54.542Z,6.30
2022-10-26T05:53:22.287Z,6.30
2022-10-26T05:55:50.349Z,6.20
2022-10-26T05:58:21.088Z,6.20
2022-10-26T06:01:08.442Z,6.10
2022-10-26T06:04:13.499Z,6.14
2022-10-26T06:06:47.557Z,6.10
2022-10-26T06:09:15.579Z,6.00
2022-10-26T06:11:45.700Z,6.00
2022-10-26T06:14:15.081Z,6.00
2022-10-26T06:16:42.640Z,6.00
2022-10-26T06:19:46.342Z,6.00
2022-10-26T06:22:42.129Z,6.00
2022-10-26T06:25:58.251Z,5.92
2022-10-26T06:28:41.297Z,5.90
2022-10-26T06:31:09.310Z,5.90
2022-10-26T06:33:37.185Z,5.90
2022-10-26T06:36:11.068Z,5.90
2022-10-26T06:38:44.685Z,5.90
2022-10-26T06:41:18.945Z,5.90
2022-10-26T06:43:49.859Z,5.90
2022-10-26T06:47:02.329Z,5.88
2022-10-26T06:50:23.644Z,5.80
2022-10-26T06:53:23.491Z,5.70
2022-10-26T06:55:57.822Z,5.70
2022-10-26T06:58:53.209Z,5.70
2022-10-26T07:01:23.358Z,5.70
2022-10-26T07:03:51.210Z,5.70
2022-10-26T07:08:54.170Z,5.80
2022-10-26T07:11:24.137Z,5.80
2022-10-26T07:13:52.014Z,5.80
2022-10-26T07:16:27.856Z,5.80
2022-10-26T07:18:56.980Z,5.80
2022-10-26T07:21:25.619Z,5.72
2022-10-26T07:23:55.976Z,5.80
2022-10-26T07:26:27.582Z,5.78
2022-10-26T07:28:56.712Z,5.70
2022-10-26T07:31:27.987Z,5.60
2022-10-26T07:33:58.334Z,5.58
2022-10-26T07:36:30.179Z,5.56
2022-10-26T07:38:57.800Z,5.58
2022-10-26T07:41:30.123Z,5.60
2022-10-26T07:43:58.126Z,5.64
2022-10-26T07:46:26.092Z,5.70
2022-10-26T07:48:54.447Z,5.80
2022-10-26T07:51:23.515Z,5.70
2022-10-26T07:53:51.768Z,5.80
2022-10-26T07:56:21.214Z,5.80
2022-10-26T07:58:53.572Z,5.80
2022-10-26T08:01:24.598Z,5.70
2022-10-26T08:03:54.770Z,5.80
2022-10-26T08:06:23.726Z,5.80
2022-10-26T08:08:52.201Z,5.80
2022-10-26T08:11:20.017Z,5.80
2022-10-26T08:13:53.806Z,5.80
2022-10-26T08:16:25.427Z,5.80
2022-10-26T08:18:53.517Z,5.70
2022-10-26T08:21:36.234Z,5.70
2022-10-26T08:24:08.796Z,5.66
2022-10-26T08:26:37.945Z,5.60
2022-10-26T08:29:09.957Z,5.52
2022-10-26T08:31:37.997Z,5.50
2022-10-26T08:34:05.761Z,5.42
2022-10-26T08:36:33.865Z,5.40
2022-10-26T08:39:03.776Z,5.50
2022-10-26T08:41:54.300Z,5.50
2022-10-26T08:44:38.679Z,5.50
2022-10-26T08:47:25.723Z,5.50
2022-10-26T08:50:08.185Z,5.50
2022-10-26T08:52:50.575Z,5.54
2022-10-26T08:55:26.532Z,5.50
2022-10-26T08:57:56.706Z,5.50
2022-10-26T09:00:27.737Z,5.50
2022-10-26T09:02:56.477Z,5.60
2022-10-26T09:05:37.029Z,5.70
2022-10-26T09:09:03.298Z,5.70
2022-10-26T09:11:46.101Z,5.70
2022-10-26T09:14:40.490Z,5.70
2022-10-26T09:18:04.763Z,5.70
2022-10-26T09:21:07.576Z,5.70
2022-10-26T09:24:28.198Z,5.76
2022-10-26T09:27:30.011Z,5.80
2022-10-26T09:30:05.027Z,5.80
2022-10-26T09:32:47.486Z,5.80
2022-10-26T09:35:51.946Z,5.80
2022-10-26T09:38:41.178Z,5.80
2022-10-26T09:41:15.526Z,5.84
2022-10-26T09:44:08.142Z,5.90
2022-10-26T09:46:52.801Z,6.00
2022-10-26T09:49:31.453Z,6.00
2022-10-26T09:51:59.345Z,6.00
2022-10-26T09:54:27.625Z,5.90
2022-10-26T09:57:02.274Z,5.90
2022-10-26T09:59:36.532Z,5.92
2022-10-26T10:02:35.041Z,6.00
2022-10-26T10:05:32.609Z,6.00
2022-10-26T10:08:27.998Z,6.00
2022-10-26T10:11:02.300Z,5.90
2022-10-26T10:13:38.638Z,5.90
2022-10-26T10:16:23.258Z,5.90
2022-10-26T10:19:01.729Z,6.00
2022-10-26T10:21:50.008Z,6.00
2022-10-26T10:24:27.354Z,6.10
2022-10-26T10:27:20.120Z,6.10
2022-10-26T10:29:59.768Z,6.10
2022-10-26T10:32:35.879Z,6.10
2022-10-26T10:35:28.211Z,6.16
2022-10-26T10:37:57.896Z,6.28
2022-10-26T10:40:32.040Z,6.30
2022-10-26T10:43:14.323Z,6.40
2022-10-26T10:45:50.397Z,6.36
2022-10-26T10:48:24.025Z,6.40
2022-10-26T10:51:03.466Z,6.40
2022-10-26T10:53:50.813Z,6.40
2022-10-26T10:56:53.455Z,6.42
2022-10-26T10:59:39.865Z,6.58
2022-10-26T11:02:42.943Z,6.60
2022-10-26T11:05:40.043Z,6.60
2022-10-26T11:08:15.928Z,6.60
2022-10-26T11:10:59.161Z,6.60
2022-10-26T11:13:39.245Z,6.70
2022-10-26T11:16:36.410Z,6.74
2022-10-26T11:19:37.342Z,6.80
2022-10-26T11:22:13.708Z,6.90
2022-10-26T11:24:59.734Z,6.90
2022-10-26T11:27:55.093Z,6.90
2022-10-26T11:30:26.152Z,6.90
2022-10-26T11:33:19.601Z,6.98
2022-10-26T11:36:21.991Z,7.00
2022-10-26T11:39:12.223Z,7.10
2022-10-26T11:42:22.518Z,7.10
2022-10-26T11:45:42.612Z,7.10
2022-10-26T11:48:51.300Z,7.10
2022-10-26T11:52:04.148Z,7.10
2022-10-26T11:54:41.129Z,7.18
2022-10-26T11:57:12.483Z,7.20
2022-10-26T12:00:16.489Z,7.20
2022-10-26T12:02:57.611Z,7.20
2022-10-26T12:05:42.183Z,7.20
2022-10-26T12:08:57.157Z,7.20
2022-10-26T12:11:53.344Z,7.20
2022-10-26T12:14:47.208Z,7.20
2022-10-26T12:17:30.378Z,7.30
2022-10-26T12:20:33.400Z,7.30
2022-10-26T12:23:04.493Z,7.30
2022-10-26T12:25:33.742Z,7.30
2022-10-26T12:28:03.097Z,7.40
2022-10-26T12:30:39.518Z,7.32
2022-10-26T12:33:33.343Z,7.30
2022-10-26T12:36:02.202Z,7.40
2022-10-26T12:38:33.962Z,7.40
2022-10-26T12:41:24.843Z,7.50
2022-10-26T12:43:57.751Z,7.60
2022-10-26T12:46:25.917Z,7.60
2022-10-26T12:48:54.094Z,7.62
2022-10-26T12:51:24.900Z,7.68
2022-10-26T12:54:36.729Z,7.70
2022-10-26T12:57:38.646Z,7.72
2022-10-26T13:00:14.821Z,7.80
2022-10-26T13:02:53.057Z,7.80
2022-10-26T13:06:04.333Z,7.80
2022-10-26T13:08:49.984Z,7.80
2022-10-26T13:11:35.922Z,7.80
2022-10-26T13:14:16.540Z,7.80
2022-10-26T13:16:47.155Z,7.80
2022-10-26T13:19:31.329Z,7.74
2022-10-26T13:22:00.998Z,7.80
2022-10-26T13:24:34.712Z,7.78
2022-10-26T13:27:08.413Z,7.70
2022-10-26T13:30:06.552Z,7.70
2022-10-26T13:32:42.965Z,7.70
2022-10-26T13:35:16.265Z,7.70
2022-10-26T13:37:49.666Z,7.68
2022-10-26T13:40:26.415Z,7.60
2022-10-26T13:43:04.216Z,7.60
2022-10-26T13:45:50.732Z,7.50
2022-10-26T13:48:28.971Z,7.50
2022-10-26T13:51:21.557Z,7.50
2022-10-26T13:54:15.142Z,7.50
2022-10-26T13:57:02.842Z,7.50
2022-10-26T13:59:34.529Z,7.50
2022-10-26T14:02:17.769Z,7.50
2022-10-26T14:05:18.223Z,7.50
2022-10-26T14:08:01.423Z,7.50
2022-10-26T14:10:36.474Z,7.50
2022-10-26T14:13:17.231Z,7.50
2022-10-26T14:16:12.848Z,7.50
2022-10-26T14:18:45.357Z,7.40
2022-10-26T14:21:22.853Z,7.40
2022-10-26T14:24:03.736Z,7.42
2022-10-26T14:26:41.503Z,7.44
2022-10-26T14:29:21.928Z,7.40
2022-10-26T14:31:51.904Z,7.40
2022-10-26T14:34:21.384Z,7.40
2022-10-26T14:36:57.818Z,7.40
2022-10-26T14:39:43.805Z,7.40
2022-10-26T14:42:39.976Z,7.40
2022-10-26T14:45:50.745Z,7.40
2022-10-26T14:48:55.572Z,7.40
2022-10-26T14:51:35.938Z,7.44
2022-10-26T14:54:07.354Z,7.50
2022-10-26T14:56:44.395Z,7.50
2022-10-26T14:59:24.551Z,7.50
2022-10-26T15:02:01.828Z,7.50
2022-10-26T15:04:43.272Z,7.50
2022-10-26T15:07:20.154Z,7.50
2022-10-26T15:09:54.522Z,7.50
2022-10-26T15:12:36.798Z,7.48
2022-10-26T15:18:00.206Z,7.50
2022-10-26T15:20:30.224Z,7.50
2022-10-26T15:23:10.558Z,7.50
2022-10-26T15:25:42.337Z,7.50
2022-10-26T15:28:30.849Z,7.50
2022-10-26T15:31:33.370Z,7.50
2022-10-26T15:34:04.231Z,7.58
2022-10-26T15:36:35.718Z,7.60
2022-10-26T15:39:06.983Z,7.50
2022-10-26T15:41:48.651Z,7.50
2022-10-26T15:44:24.044Z,7.54
2022-10-26T15:46:52.743Z,7.60
2022-10-26T15:49:22.659Z,7.60
2022-10-26T15:51:51.766Z,7.60
2022-10-26T15:54:21.664Z,7.60
2022-10-26T15:56:49.557Z,7.60
2022-10-26T15:59:19.737Z,7.60
2022-10-26T16:01:52.732Z,7.60
2022-10-26T16:04:22.210Z,7.60
2022-10-26T16:06:52.392Z,7.60
2022-10-26T16:09:21.201Z,7.70
2022-10-26T16:11:52.438Z,7.70
2022-10-26T16:14:21.212Z,7.70
2022-10-26T16:16:50.479Z,7.70
2022-10-26T16:19:30.414Z,7.70
2022-10-26T16:22:01.293Z,7.70
2022-10-26T16:24:34.253Z,7.64
2022-10-26T16:27:05.124Z,7.60
2022-10-26T16:29:33.192Z,7.60
2022-10-26T16:32:02.283Z,7.60
2022-10-26T16:34:30.138Z,7.60
2022-10-26T16:36:59.607Z,7.60
2022-10-26T16:39:30.727Z,7.60
2022-10-26T16:42:00.772Z,7.60
2022-10-26T16:44:29.716Z,7.60
2022-10-26T16:46:58.067Z,7.60
2022-10-26T16:49:27.683Z,7.60
2022-10-26T16:51:57.965Z,7.64
2022-10-26T16:54:26.125Z,7.70
2022-10-26T16:56:56.186Z,7.70
2022-10-26T16:59:25.456Z,7.70
2022-10-26T17:01:53.302Z,7.60
2022-10-26T17:04:21.654Z,7.60
2022-10-26T17:06:50.116Z,7.60
2022-10-26T17:09:22.035Z,7.60
2022-10-26T17:11:50.455Z,7.60
2022-10-26T17:14:18.828Z,7.60
2022-10-26T17:16:49.111Z,7.60
2022-10-26T17:19:26.702Z,7.64
2022-10-26T17:21:55.423Z,7.62
2022-10-26T17:24:24.066Z,7.70
2022-10-26T17:26:53.487Z,7.70
2022-10-26T17:29:29.334Z,7.70
2022-10-26T17:31:57.409Z,7.78
2022-10-26T17:34:30.337Z,7.80
2022-10-26T17:36:59.053Z,7.80
2022-10-26T17:39:27.137Z,7.80
2022-10-26T17:41:56.125Z,7.84
2022-10-26T17:44:24.073Z,7.84
2022-10-26T17:46:52.480Z,7.88
2022-10-26T17:49:24.819Z,7.90
2022-10-26T17:51:54.951Z,7.90
2022-10-26T17:54:24.395Z,7.90
2022-10-26T17:56:53.677Z,7.90
2022-10-26T17:59:23.837Z,7.90
2022-10-26T18:01:51.640Z,7.90
2022-10-26T18:04:20.649Z,7.80
2022-10-26T18:06:50.544Z,7.80
2022-10-26T18:09:18.469Z,7.80
2022-10-26T18:11:46.797Z,7.88
2022-10-26T18:14:15.536Z,7.90
2022-10-26T18:16:43.885Z,7.88
2022-10-26T18:19:13.438Z,7.80
2022-10-26T18:21:41.783Z,7.80
2022-10-26T18:24:11.476Z,7.80
2022-10-26T18:26:43.043Z,7.90
2022-10-26T18:29:13.421Z,7.90
2022-10-26T18:31:46.670Z,7.90
2022-10-26T18:34:17.318Z,7.90
2022-10-26T18:36:46.247Z,7.82
2022-10-26T18:39:15.340Z,7.82
2022-10-26T18:41:44.635Z,7.80
2022-10-26T18:44:13.180Z,7.90
2022-10-26T18:46:47.787Z,7.90
2022-10-26T18:49:19.546Z,7.90
2022-10-26T18:51:49.300Z,7.90
2022-10-26T18:54:22.606Z,7.90
2022-10-26T18:56:51.647Z,7.90
2022-10-26T18:59:20.615Z,7.90
2022-10-26T19:01:52.458Z,7.90
2022-10-26T19:04:21.361Z,7.90
2022-10-26T19:06:50.660Z,7.90
2022-10-26T19:09:21.453Z,7.90
2022-10-26T19:11:49.801Z,8.00
2022-10-26T19:14:20.928Z,8.00
2022-10-26T19:16:54.056Z,8.00
2022-10-26T19:19:23.382Z,8.00
2022-10-26T19:21:51.985Z,8.00
2022-10-26T19:24:25.213Z,8.00
2022-10-26T19:26:55.328Z,8.08
2022-10-26T19:29:23.591Z,8.00
2022-10-26T19:31:54.254Z,7.90
2022-10-26T19:34:24.146Z,7.90
2022-10-26T19:36:54.196Z,7.90
2022-10-26T19:39:22.945Z,7.90
2022-10-26T19:41:54.617Z,7.90
2022-10-26T19:44:27.694Z,7.82
2022-10-26T19:47:01.427Z,7.80
2022-10-26T19:49:29.536Z,7.80
2022-10-26T19:51:58.077Z,7.90
2022-10-26T19:54:27.466Z,7.92
2022-10-26T19:56:55.610Z,8.00
2022-10-26T19:59:23.861Z,8.00
2022-10-26T20:01:53.708Z,8.00
2022-10-26T20:04:21.670Z,8.00
2022-10-26T20:06:49.852Z,8.00
2022-10-26T20:09:34.529Z,8.00
2022-10-26T20:12:03.080Z,8.00
2022-10-26T20:14:32.313Z,8.00
2022-10-26T20:17:04.932Z,8.10
2022-10-26T20:19:33.190Z,8.10
2022-10-26T20:22:04.014Z,8.08
2022-10-26T20:24:32.134Z,8.10
2022-10-26T20:27:04.290Z,8.10
2022-10-26T20:29:33.675Z,8.10
2022-10-26T20:32:01.567Z,8.10
2022-10-26T20:34:30.867Z,8.06
2022-10-26T20:37:02.413Z,8.00
2022-10-26T20:39:32.880Z,7.98
2022-10-26T20:42:08.823Z,7.96
2022-10-26T20:44:42.760Z,8.00
2022-10-26T20:47:11.277Z,8.00
2022-10-26T20:52:49.096Z,8.00
2022-10-26T20:55:59.155Z,8.00
2022-10-26T20:58:45.193Z,7.92
2022-10-26T21:01:38.683Z,7.90
2022-10-26T21:04:09.257Z,7.96
2022-10-26T21:06:40.290Z,8.00
2022-10-26T21:09:17.637Z,8.00
2022-10-26T21:11:46.546Z,8.00
2022-10-26T21:14:16.417Z,8.00
2022-10-26T21:16:44.557Z,8.00
2022-10-26T21:19:13.085Z,8.10
2022-10-26T21:21:43.874Z,8.10
2022-10-26T21:24:11.883Z,8.12
2022-10-26T21:26:42.652Z,8.10
2022-10-26T21:29:13.317Z,8.10
2022-10-26T21:31:40.981Z,8.10
2022-10-26T21:34:09.835Z,8.10
2022-10-26T21:36:41.546Z,8.10
2022-10-26T21:39:09.221Z,8.10
2022-10-26T21:41:37.811Z,8.10
2022-10-26T21:44:09.230Z,8.16
2022-10-26T21:46:45.520Z,8.20
2022-10-26T21:49:13.660Z,8.10
2022-10-26T21:51:43.356Z,8.16
2022-10-26T21:54:11.919Z,8.20
2022-10-26T21:56:40.125Z,8.16
2022-10-26T21:59:11.489Z,8.20
2022-10-26T22:01:40.976Z,8.20
2022-10-26T22:04:11.696Z,8.20
2022-10-26T22:06:39.368Z,8.20
2022-10-26T22:09:09.885Z,8.20
2022-10-26T22:11:39.829Z,8.18
2022-10-26T22:14:08.048Z,8.10
2022-10-26T22:16:36.591Z,8.10
2022-10-26T22:19:09.259Z,8.10
2022-10-26T22:21:41.677Z,8.16
2022-10-26T22:24:11.351Z,8.10
2022-10-26T22:26:43.058Z,8.10
2022-10-26T22:29:10.811Z,8.10
2022-10-26T22:31:41.846Z,8.10
2022-10-26T22:34:16.978Z,8.08
2022-10-26T22:36:44.895Z,8.02
2022-10-26T22:39:14.361Z,8.08
2022-10-26T22:41:43.807Z,8.10
2022-10-26T22:44:12.796Z,8.10
2022-10-26T22:46:44.121Z,8.10
2022-10-26T22:49:14.096Z,8.10
2022-10-26T22:51:44.092Z,8.10
2022-10-26T22:54:14.492Z,8.10
2022-10-26T22:56:42.628Z,8.10
2022-10-26T22:59:10.500Z,8.10
2022-10-26T23:01:42.869Z,8.10
2022-10-26T23:04:15.319Z,8.10
2022-10-26T23:06:44.546Z,8.16
2022-10-26T23:09:12.339Z,8.20
2022-10-26T23:11:41.041Z,8.20
2022-10-26T23:14:09.487Z,8.30
2022-10-26T23:16:37.216Z,8.30
2022-10-26T23:19:05.425Z,8.30
2022-10-26T23:21:37.791Z,8.30
2022-10-26T23:24:06.285Z,8.20
2022-10-26T23:26:34.405Z,8.20
2022-10-26T23:29:02.108Z,8.20
2022-10-26T23:31:31.321Z,8.20
2022-10-26T23:34:01.881Z,8.20
2022-10-26T23:36:29.569Z,8.26
2022-10-26T23:38:58.040Z,8.30
2022-10-26T23:41:25.814Z,8.30
2022-10-26T23:43:53.908Z,8.30
2022-10-26T23:46:21.544Z,8.30
2022-10-26T23:48:49.285Z,8.30
2022-10-26T23:51:18.164Z,8.30
2022-10-26T23:53:53.650Z,8.30
2022-10-26T23:56:22.580Z,8.30
2022-10-26T23:58:51.469Z,8.30
